createdAt,value
2018-07-06T00:00:56.954Z,18.90
2018-07-06T00:03:38.522Z,19.00
2018-07-06T00:06:19.595Z,18.80
2018-07-06T00:09:01.177Z,18.80
2018-07-06T00:11:43.162Z,18.80
2018-07-06T00:14:24.137Z,18.80
2018-07-06T00:17:05.911Z,18.70
2018-07-06T00:19:48.127Z,18.60
2018-07-06T00:22:30.302Z,18.60
2018-07-06T00:25:11.921Z,18.50
2018-07-06T00:27:53.094Z,18.40
2018-07-06T00:30:35.293Z,18.40
2018-07-06T00:33:17.399Z,18.50
2018-07-06T00:35:59.362Z,18.40
2018-07-06T00:38:40.248Z,18.40
2018-07-06T00:41:22.352Z,18.50
2018-07-06T00:44:04.862Z,18.50
2018-07-06T00:46:46.258Z,18.40
2018-07-06T00:49:27.306Z,18.40
2018-07-06T00:52:08.351Z,18.30
2018-07-06T00:54:49.777Z,18.30
2018-07-06T00:57:31.790Z,18.30
2018-07-06T01:00:13.218Z,18.30
2018-07-06T01:02:54.693Z,18.30
2018-07-06T01:05:36.066Z,18.20
2018-07-06T01:08:17.126Z,18.10
2018-07-06T01:10:58.779Z,18.00
2018-07-06T01:13:39.976Z,18.10
2018-07-06T01:16:21.858Z,18.10
2018-07-06T01:19:02.830Z,17.90
2018-07-06T01:21:43.781Z,18.00
2018-07-06T01:24:25.025Z,18.00
2018-07-06T01:27:07.962Z,18.00
2018-07-06T01:29:49.638Z,17.90
2018-07-06T01:32:31.614Z,17.90
2018-07-06T01:35:12.944Z,17.90
2018-07-06T01:37:54.108Z,17.80
2018-07-06T01:40:35.690Z,17.90
2018-07-06T01:43:18.618Z,17.60
2018-07-06T01:46:00.027Z,17.60
2018-07-06T01:48:41.871Z,17.70
2018-07-06T01:51:24.070Z,17.70
2018-07-06T01:54:05.792Z,17.80
2018-07-06T01:56:47.479Z,17.70
2018-07-06T01:59:28.943Z,17.70
2018-07-06T02:02:10.120Z,17.70
2018-07-06T02:04:51.806Z,17.70
2018-07-06T02:07:33.479Z,17.50
2018-07-06T02:10:14.656Z,17.50
2018-07-06T02:12:56.539Z,17.40
2018-07-06T02:15:38.858Z,17.40
2018-07-06T02:18:20.955Z,17.40
2018-07-06T02:21:01.999Z,17.40
2018-07-06T02:23:44.015Z,17.40
2018-07-06T02:26:24.878Z,17.30
2018-07-06T02:29:05.938Z,17.20
2018-07-06T02:31:47.520Z,17.20
2018-07-06T02:34:29.102Z,17.30
2018-07-06T02:37:10.579Z,17.20
2018-07-06T02:39:52.475Z,17.20
2018-07-06T02:42:35.289Z,17.10
2018-07-06T02:45:16.982Z,17.10
2018-07-06T02:47:58.056Z,17.10
2018-07-06T02:50:39.860Z,17.10
2018-07-06T02:53:20.801Z,17.10
2018-07-06T02:56:01.831Z,17.00
2018-07-06T02:58:43.639Z,17.00
2018-07-06T03:01:25.233Z,16.90
2018-07-06T03:04:06.807Z,16.80
2018-07-06T03:06:48.652Z,16.80
2018-07-06T03:09:30.292Z,16.90
2018-07-06T03:12:12.398Z,16.90
2018-07-06T03:14:54.175Z,16.70
2018-07-06T03:17:35.006Z,16.60
2018-07-06T03:20:16.919Z,16.60
2018-07-06T03:22:57.751Z,16.60
2018-07-06T03:25:38.806Z,16.60
2018-07-06T03:28:20.011Z,16.60
2018-07-06T03:31:01.452Z,16.50
2018-07-06T03:33:42.753Z,16.50
2018-07-06T03:36:24.439Z,16.50
2018-07-06T03:39:05.583Z,16.80
2018-07-06T03:41:46.349Z,16.70
2018-07-06T03:44:27.830Z,16.70
2018-07-06T03:47:08.887Z,16.70
2018-07-06T03:49:49.841Z,16.60
2018-07-06T03:52:30.796Z,16.60
2018-07-06T03:55:12.692Z,16.50
2018-07-06T03:57:54.371Z,16.40
2018-07-06T04:00:35.750Z,16.50
2018-07-06T04:03:16.601Z,16.70
2018-07-06T04:05:58.586Z,16.90
2018-07-06T04:08:40.378Z,16.90
2018-07-06T04:11:22.354Z,17.10
2018-07-06T04:14:04.391Z,17.30
2018-07-06T04:16:45.554Z,17.30
2018-07-06T04:19:27.618Z,17.40
2018-07-06T04:22:09.240Z,17.40
2018-07-06T04:24:50.926Z,17.50
2018-07-06T04:27:31.882Z,17.50
2018-07-06T04:30:13.464Z,17.50
2018-07-06T04:32:54.941Z,18.20
2018-07-06T04:40:45.966Z,17.60
2018-07-06T04:43:27.271Z,17.60
2018-07-06T04:46:07.727Z,17.60
2018-07-06T04:51:23.838Z,17.50
2018-07-06T04:54:05.870Z,17.50
2018-07-06T04:56:46.998Z,17.50
2018-07-06T04:59:28.616Z,17.60
2018-07-06T05:02:09.989Z,17.60
2018-07-06T05:04:52.616Z,17.60
2018-07-06T05:10:10.858Z,17.70
2018-07-06T05:12:52.138Z,17.70
2018-07-06T05:15:33.616Z,17.70
2018-07-06T05:18:15.511Z,17.80
2018-07-06T05:20:57.092Z,17.90
2018-07-06T05:23:38.710Z,17.90
2018-07-06T05:26:20.038Z,18.00
2018-07-06T05:29:01.629Z,18.00
2018-07-06T05:31:43.524Z,18.00
2018-07-06T05:34:25.382Z,18.10
2018-07-06T05:37:06.990Z,18.10
2018-07-06T05:39:48.990Z,18.10
2018-07-06T05:42:30.566Z,18.10
2018-07-06T05:45:11.747Z,18.20
2018-07-06T05:47:53.479Z,18.30
2018-07-06T05:50:35.408Z,18.30
2018-07-06T05:53:16.898Z,18.30
2018-07-06T05:55:58.076Z,18.40
2018-07-06T05:58:39.343Z,18.40
2018-07-06T06:01:20.925Z,18.50
2018-07-06T06:04:02.396Z,18.50
2018-07-06T06:06:43.873Z,18.60
2018-07-06T06:09:12.822Z,18.70
2018-07-06T06:11:43.087Z,18.90
2018-07-06T06:14:13.819Z,18.90
2018-07-06T06:16:43.014Z,18.90
2018-07-06T06:19:14.836Z,19.00
2018-07-06T06:21:44.329Z,19.00
2018-07-06T06:24:15.574Z,19.00
2018-07-06T06:26:45.503Z,19.00
2018-07-06T06:29:15.787Z,19.10
2018-07-06T06:31:45.640Z,19.00
2018-07-06T06:36:46.047Z,19.00
2018-07-06T06:39:15.656Z,19.10
2018-07-06T06:41:45.801Z,19.10
2018-07-06T06:44:16.876Z,19.00
2018-07-06T06:46:46.602Z,19.10
2018-07-06T06:51:45.639Z,19.30
2018-07-06T06:54:15.470Z,19.50
2018-07-06T06:56:44.966Z,19.40
2018-07-06T06:59:14.888Z,19.40
2018-07-06T07:01:44.012Z,19.60
2018-07-06T07:04:14.298Z,19.70
2018-07-06T07:06:44.183Z,20.00
2018-07-06T07:09:15.338Z,20.10
2018-07-06T07:11:45.518Z,20.20
2018-07-06T07:14:15.915Z,20.40
2018-07-06T07:16:45.019Z,20.30
2018-07-06T07:19:14.982Z,20.30
2018-07-06T07:21:45.524Z,20.40
2018-07-06T07:24:15.749Z,20.30
2018-07-06T07:26:45.836Z,20.20
2018-07-06T07:29:15.187Z,20.20
2018-07-06T07:31:45.798Z,20.00
2018-07-06T07:34:16.574Z,20.00
2018-07-06T07:36:47.238Z,20.00
2018-07-06T07:39:17.522Z,20.00
2018-07-06T07:41:47.250Z,20.00
2018-07-06T07:44:17.427Z,20.00
2018-07-06T07:46:47.642Z,20.00
2018-07-06T07:49:17.819Z,20.00
2018-07-06T07:52:02.596Z,19.90
2018-07-06T07:54:42.116Z,20.00
2018-07-06T07:57:13.122Z,20.10
2018-07-06T07:59:44.059Z,20.10
2018-07-06T08:02:14.207Z,20.30
2018-07-06T08:04:44.094Z,20.40
2018-07-06T08:07:14.149Z,20.60
2018-07-06T08:09:47.150Z,20.60
2018-07-06T08:12:18.278Z,20.60
2018-07-06T08:14:49.184Z,20.60
2018-07-06T08:17:19.681Z,21.00
2018-07-06T08:19:49.745Z,21.00
2018-07-06T08:22:19.987Z,21.20
2018-07-06T08:24:50.795Z,21.40
2018-07-06T08:27:21.610Z,21.40
2018-07-06T08:32:21.246Z,21.40
2018-07-06T08:35:01.929Z,21.60
2018-07-06T08:37:44.474Z,21.80
2018-07-06T08:40:14.582Z,21.80
2018-07-06T08:42:51.726Z,21.80
2018-07-06T08:45:21.898Z,21.70
2018-07-06T08:47:53.755Z,21.60
2018-07-06T08:52:53.699Z,21.80
2018-07-06T08:55:24.678Z,21.80
2018-07-06T08:57:55.542Z,21.80
2018-07-06T09:00:25.610Z,21.80
2018-07-06T09:02:55.441Z,22.20
2018-07-06T09:05:26.194Z,22.20
2018-07-06T09:07:56.118Z,22.20
2018-07-06T09:10:26.902Z,22.30
2018-07-06T09:12:56.837Z,22.30
2018-07-06T09:15:26.513Z,22.40
2018-07-06T09:17:56.059Z,22.60
2018-07-06T09:20:25.878Z,22.60
2018-07-06T09:25:25.473Z,22.50
2018-07-06T09:27:55.303Z,22.40
2018-07-06T09:30:26.075Z,22.20
2018-07-06T09:32:57.878Z,22.10
2018-07-06T09:35:27.446Z,22.10
2018-07-06T09:37:58.006Z,22.20
2018-07-06T09:40:27.123Z,22.40
2018-07-06T09:42:57.498Z,22.60
2018-07-06T09:45:28.008Z,22.50
2018-07-06T09:47:57.819Z,22.70
2018-07-06T09:50:27.598Z,22.70
2018-07-06T09:52:58.038Z,23.00
2018-07-06T09:55:27.260Z,22.90
2018-07-06T09:57:58.020Z,23.10
2018-07-06T10:00:33.087Z,23.00
2018-07-06T10:03:04.554Z,23.10
2018-07-06T10:05:34.483Z,23.40
2018-07-06T10:08:05.727Z,23.30
2018-07-06T10:10:36.235Z,23.30
2018-07-06T10:13:07.368Z,23.60
2018-07-06T10:15:37.367Z,23.80
2018-07-06T10:18:07.787Z,24.00
2018-07-06T10:20:38.807Z,24.10
2018-07-06T10:23:08.407Z,24.10
2018-07-06T10:25:39.249Z,24.10
2018-07-06T10:28:19.942Z,24.20
2018-07-06T10:31:00.715Z,24.20
2018-07-06T10:33:31.386Z,24.10
2018-07-06T10:36:01.906Z,24.10
2018-07-06T10:38:31.114Z,24.10
2018-07-06T10:41:01.096Z,24.00
2018-07-06T10:43:32.326Z,24.30
2018-07-06T10:46:02.947Z,24.30
2018-07-06T10:48:32.915Z,24.10
2018-07-06T10:51:05.110Z,24.20
2018-07-06T10:53:35.546Z,24.20
2018-07-06T10:58:36.878Z,23.90
2018-07-06T11:01:06.923Z,24.10
2018-07-06T11:03:37.054Z,24.60
2018-07-06T11:06:06.775Z,24.90
2018-07-06T11:08:36.814Z,24.80
2018-07-06T11:11:06.851Z,24.90
2018-07-06T11:13:36.974Z,24.80
2018-07-06T11:16:07.243Z,25.00
2018-07-06T11:18:36.826Z,24.90
2018-07-06T11:21:07.963Z,24.90
2018-07-06T11:23:38.319Z,24.90
2018-07-06T11:26:08.471Z,24.90
2018-07-06T11:28:38.834Z,25.10
2018-07-06T11:33:38.467Z,25.30
2018-07-06T11:36:08.543Z,25.20
2018-07-06T11:38:38.445Z,25.30
2018-07-06T11:41:08.907Z,25.30
2018-07-06T11:43:39.435Z,25.30
2018-07-06T11:46:09.499Z,25.40
2018-07-06T11:48:38.694Z,25.50
2018-07-06T11:51:08.945Z,25.20
2018-07-06T11:56:08.812Z,25.30
2018-07-06T11:58:40.071Z,25.30
2018-07-06T12:01:11.470Z,25.80
2018-07-06T12:03:41.083Z,25.80
2018-07-06T12:06:10.547Z,25.90
2018-07-06T12:08:41.192Z,25.80
2018-07-06T12:11:11.836Z,26.00
2018-07-06T12:13:42.896Z,26.20
2018-07-06T12:16:13.487Z,26.10
2018-07-06T12:18:44.706Z,26.40
2018-07-06T12:21:15.227Z,26.50
2018-07-06T12:23:45.051Z,26.50
2018-07-06T12:26:15.111Z,26.60
2018-07-06T12:28:45.178Z,26.50
2018-07-06T12:31:15.978Z,26.40
2018-07-06T12:33:46.163Z,26.50
2018-07-06T12:36:15.578Z,26.70
2018-07-06T12:38:45.886Z,26.70
2018-07-06T12:41:16.087Z,26.70
2018-07-06T12:43:46.971Z,26.70
2018-07-06T12:46:18.094Z,26.90
2018-07-06T12:48:47.683Z,27.00
2018-07-06T12:51:17.076Z,27.20
2018-07-06T12:53:47.031Z,27.40
2018-07-06T12:56:17.890Z,27.40
2018-07-06T13:01:16.539Z,27.80
2018-07-06T13:03:46.789Z,28.30
2018-07-06T13:06:16.380Z,28.20
2018-07-06T13:11:14.903Z,27.40
2018-07-06T13:16:17.054Z,27.00
2018-07-06T13:18:47.039Z,26.80
2018-07-06T13:21:17.218Z,26.70
2018-07-06T13:23:46.328Z,26.50
2018-07-06T13:26:16.643Z,26.50
2018-07-06T13:28:46.987Z,26.30
2018-07-06T13:31:17.631Z,26.30
2018-07-06T13:33:47.766Z,26.40
2018-07-06T13:36:17.318Z,26.70
2018-07-06T13:38:48.651Z,27.20
2018-07-06T13:41:19.642Z,27.80
2018-07-06T13:43:49.811Z,27.80
2018-07-06T13:46:22.224Z,28.20
2018-07-06T13:48:52.698Z,28.20
2018-07-06T13:51:23.931Z,28.30
2018-07-06T13:53:55.242Z,28.90
2018-07-06T13:56:25.139Z,28.90
2018-07-06T13:58:55.080Z,29.20
2018-07-06T14:01:25.936Z,29.20
2018-07-06T14:03:56.943Z,29.40
2018-07-06T14:06:27.087Z,29.80
2018-07-06T14:08:56.782Z,29.50
2018-07-06T14:11:26.932Z,29.10
2018-07-06T14:13:58.810Z,28.80
2018-07-06T14:16:28.615Z,28.60
2018-07-06T14:18:58.014Z,28.40
2018-07-06T14:21:27.719Z,28.70
2018-07-06T14:23:57.186Z,28.70
2018-07-06T14:26:26.790Z,28.50
2018-07-06T14:28:56.695Z,27.80
2018-07-06T14:31:26.871Z,27.70
2018-07-06T14:33:57.114Z,28.30
2018-07-06T14:38:56.942Z,28.00
2018-07-06T14:41:28.019Z,28.00
2018-07-06T14:43:58.390Z,28.00
2018-07-06T14:46:28.631Z,28.60
2018-07-06T14:48:59.351Z,28.70
2018-07-06T14:51:29.639Z,28.20
2018-07-06T14:53:59.906Z,28.20
2018-07-06T14:56:29.018Z,28.20
2018-07-06T14:58:58.551Z,27.80
2018-07-06T15:01:29.814Z,27.70
2018-07-06T15:04:01.891Z,28.20
2018-07-06T15:06:31.157Z,28.50
2018-07-06T15:09:00.662Z,28.40
2018-07-06T15:11:31.742Z,28.40
2018-07-06T15:14:01.715Z,28.10
2018-07-06T15:16:31.843Z,28.00
2018-07-06T15:19:03.616Z,27.70
2018-07-06T15:21:34.399Z,27.80
2018-07-06T15:24:03.930Z,28.10
2018-07-06T15:26:33.055Z,28.40
2018-07-06T15:29:03.982Z,28.40
2018-07-06T15:31:33.267Z,28.40
2018-07-06T15:34:02.602Z,28.40
2018-07-06T15:36:32.095Z,28.30
2018-07-06T15:39:01.959Z,28.40
2018-07-06T15:41:32.431Z,28.40
2018-07-06T15:44:03.691Z,28.40
2018-07-06T15:49:03.231Z,27.90
2018-07-06T15:51:33.070Z,27.90
2018-07-06T15:54:02.855Z,27.80
2018-07-06T15:56:32.662Z,27.80
2018-07-06T15:59:02.273Z,27.80
2018-07-06T16:01:32.503Z,27.90
2018-07-06T16:04:02.652Z,28.30
2018-07-06T16:06:33.636Z,28.60
2018-07-06T16:09:04.063Z,28.70
2018-07-06T16:11:33.844Z,28.40
2018-07-06T16:14:03.388Z,28.20
2018-07-06T16:16:34.348Z,28.40
2018-07-06T16:19:04.156Z,29.50
2018-07-06T16:21:33.233Z,30.60
2018-07-06T16:24:03.086Z,31.50
2018-07-06T16:26:33.674Z,31.20
2018-07-06T16:29:03.979Z,30.70
2018-07-06T16:31:34.100Z,30.20
2018-07-06T16:34:04.307Z,30.50
2018-07-06T16:36:34.670Z,30.70
2018-07-06T16:39:04.758Z,31.50
2018-07-06T16:41:36.723Z,31.80
2018-07-06T16:44:06.677Z,31.40
2018-07-06T16:46:36.216Z,31.10
2018-07-06T16:49:06.126Z,30.20
2018-07-06T16:51:37.318Z,29.40
2018-07-06T16:54:06.955Z,29.00
2018-07-06T16:56:36.458Z,28.70
2018-07-06T16:59:06.566Z,28.30
2018-07-06T17:01:36.298Z,27.80
2018-07-06T17:04:06.478Z,27.50
2018-07-06T17:06:36.021Z,27.30
2018-07-06T17:09:06.662Z,27.00
2018-07-06T17:11:36.458Z,27.00
2018-07-06T17:14:07.210Z,27.00
2018-07-06T17:16:37.520Z,27.00
2018-07-06T17:19:07.187Z,26.90
2018-07-06T17:21:37.615Z,26.80
2018-07-06T17:24:08.058Z,26.70
2018-07-06T17:26:38.470Z,26.60
2018-07-06T17:29:08.274Z,26.60
2018-07-06T17:31:37.937Z,26.40
2018-07-06T17:34:08.971Z,26.40
2018-07-06T17:36:39.618Z,26.40
2018-07-06T17:39:09.098Z,26.50
2018-07-06T17:41:40.706Z,26.50
2018-07-06T17:44:09.961Z,26.50
2018-07-06T17:46:39.990Z,26.40
2018-07-06T17:49:11.830Z,26.50
2018-07-06T17:51:41.811Z,26.50
2018-07-06T17:54:12.042Z,26.40
2018-07-06T17:56:42.678Z,26.40
2018-07-06T17:59:12.626Z,26.30
2018-07-06T18:01:42.058Z,26.20
2018-07-06T18:04:12.359Z,26.10
2018-07-06T18:06:43.842Z,26.10
2018-07-06T18:09:14.252Z,26.00
2018-07-06T18:14:14.021Z,25.70
2018-07-06T18:16:45.302Z,25.60
2018-07-06T18:19:15.617Z,25.60
2018-07-06T18:21:45.067Z,25.40
2018-07-06T18:24:15.839Z,25.30
2018-07-06T18:26:46.166Z,25.40
2018-07-06T18:29:18.024Z,25.10
2018-07-06T18:31:48.499Z,25.10
2018-07-06T18:34:18.655Z,25.00
2018-07-06T18:36:47.950Z,25.10
2018-07-06T18:39:18.597Z,25.10
2018-07-06T18:41:51.219Z,25.10
2018-07-06T18:44:21.518Z,25.20
2018-07-06T18:46:52.527Z,25.10
2018-07-06T18:49:22.624Z,25.10
2018-07-06T18:51:52.682Z,24.90
2018-07-06T18:54:22.978Z,24.90
2018-07-06T18:56:53.339Z,24.80
2018-07-06T18:59:23.270Z,24.80
2018-07-06T19:01:54.043Z,24.80
2018-07-06T19:04:24.002Z,24.70
2018-07-06T19:06:53.787Z,24.70
2018-07-06T19:09:24.839Z,24.60
2018-07-06T19:11:54.886Z,24.60
2018-07-06T19:14:25.902Z,24.50
2018-07-06T19:16:55.731Z,24.50
2018-07-06T19:19:25.786Z,24.40
2018-07-06T19:21:56.600Z,24.30
2018-07-06T19:24:26.790Z,24.20
2018-07-06T19:26:56.910Z,24.00
2018-07-06T19:29:27.112Z,23.90
2018-07-06T19:31:56.818Z,23.90
2018-07-06T19:34:27.075Z,23.90
2018-07-06T19:39:25.726Z,23.80
2018-07-06T19:41:55.394Z,23.60
2018-07-06T19:44:25.074Z,23.60
2018-07-06T19:46:54.834Z,23.60
2018-07-06T19:49:24.282Z,23.50
2018-07-06T19:51:55.675Z,23.40
2018-07-06T19:54:26.570Z,23.40
2018-07-06T19:56:57.699Z,23.30
2018-07-06T19:59:27.574Z,23.30
2018-07-06T20:01:58.619Z,23.10
2018-07-06T20:04:28.494Z,22.90
2018-07-06T20:06:59.345Z,23.00
2018-07-06T20:09:29.275Z,22.80
2018-07-06T20:11:58.994Z,22.70
2018-07-06T20:14:28.844Z,22.80
2018-07-06T20:16:59.043Z,22.70
2018-07-06T20:19:29.674Z,22.60
2018-07-06T20:22:00.020Z,22.60
2018-07-06T20:26:59.566Z,22.60
2018-07-06T20:29:29.523Z,22.50
2018-07-06T20:32:00.678Z,22.50
2018-07-06T20:34:30.986Z,22.40
2018-07-06T20:37:00.738Z,22.20
2018-07-06T20:39:31.495Z,22.20
2018-07-06T20:42:02.527Z,22.20
2018-07-06T20:44:32.281Z,22.40
2018-07-06T20:47:02.419Z,22.40
2018-07-06T20:49:32.349Z,22.40
2018-07-06T20:54:32.374Z,22.30
2018-07-06T20:57:02.659Z,22.20
2018-07-06T20:59:33.938Z,22.20
2018-07-06T21:02:04.858Z,22.10
2018-07-06T21:04:34.309Z,22.10
2018-07-06T21:07:04.782Z,22.00
2018-07-06T21:09:34.399Z,22.00
2018-07-06T21:12:04.832Z,21.90
2018-07-06T21:14:34.742Z,21.90
2018-07-06T21:17:04.590Z,21.80
2018-07-06T21:19:35.958Z,21.80
2018-07-06T21:22:06.514Z,21.70
2018-07-06T21:24:37.633Z,21.80
2018-07-06T21:27:07.435Z,21.80
2018-07-06T21:29:38.646Z,21.80
2018-07-06T21:32:08.040Z,21.40
2018-07-06T21:34:37.986Z,21.40
2018-07-06T21:39:37.329Z,21.20
2018-07-06T21:42:07.813Z,21.00
2018-07-06T21:44:37.685Z,21.00
2018-07-06T21:47:06.925Z,21.00
2018-07-06T21:49:37.459Z,21.00
2018-07-06T21:52:07.486Z,21.10
2018-07-06T21:54:36.975Z,20.90
2018-07-06T21:57:06.630Z,20.90
2018-07-06T21:59:36.262Z,21.10
2018-07-06T22:02:10.324Z,21.10
2018-07-06T22:04:40.566Z,21.10
2018-07-06T22:07:10.818Z,21.10
2018-07-06T22:09:41.595Z,21.10
2018-07-06T22:12:16.021Z,21.10
2018-07-06T22:14:46.051Z,21.00
2018-07-06T22:17:20.073Z,21.10
2018-07-06T22:19:49.919Z,21.00
2018-07-06T22:22:20.746Z,21.00
2018-07-06T22:24:50.755Z,21.00
2018-07-06T22:27:22.215Z,21.00
2018-07-06T22:29:52.203Z,21.00
2018-07-06T22:32:22.691Z,21.00
2018-07-06T22:34:53.114Z,21.00
2018-07-06T22:37:23.107Z,20.80
2018-07-06T22:39:53.200Z,20.70
2018-07-06T22:42:23.318Z,20.60
2018-07-06T22:44:53.747Z,20.70
2018-07-06T22:47:23.726Z,20.50
2018-07-06T22:49:54.375Z,20.40
2018-07-06T22:52:24.634Z,20.40
2018-07-06T22:54:54.542Z,20.50
2018-07-06T22:57:26.446Z,20.50
2018-07-06T22:59:57.459Z,20.50
2018-07-06T23:02:26.957Z,20.40
2018-07-06T23:04:57.050Z,20.30
2018-07-06T23:07:27.669Z,20.30
2018-07-06T23:09:57.012Z,20.30
2018-07-06T23:14:55.831Z,20.20
2018-07-06T23:17:25.230Z,20.20
2018-07-06T23:19:54.789Z,20.10
2018-07-06T23:22:35.868Z,20.00
2018-07-06T23:25:05.790Z,19.90
2018-07-06T23:27:36.930Z,20.00
2018-07-06T23:30:06.790Z,19.90
2018-07-06T23:32:36.527Z,20.00
2018-07-06T23:35:06.602Z,19.80
2018-07-06T23:37:37.407Z,19.70
2018-07-06T23:40:07.370Z,19.70
2018-07-06T23:42:38.302Z,19.50
2018-07-06T23:45:08.891Z,19.50
2018-07-06T23:47:38.961Z,19.60
2018-07-06T23:50:09.682Z,19.60
2018-07-06T23:52:39.294Z,19.60
2018-07-06T23:57:38.214Z,19.50
